Clifton, NJ (07011)

9:37 PM EDT on April 01, 2015 (GMT -0400)
Albion Park | | Change Station
CLOSE
Current Station
Personal Weather Station
Location: Clifton, NJ
Elevation: 215 ft
Nearby Weather Stations

Elev 215 ft 40.89 °N, 74.17 °W | Updated 1 second ago

Clear
Clear
38.8 °F
Feels Like 39 °F
N
0.0
Wind Variable Wind from NNW
Gusts 0.0 mph

Today
High -- | Low -- °F
--% Chance of Precip.
Yesterday
High -- | Low -- °F
Precip. -- in
6:40 AM 7:21 PM
Waxing Gibbous, 95% visible
Pressure 30.18 in
Visibility 10.0 miles
Clouds Clear
Windchill 39 °F
Dew Point 25 °F
Humidity 57%
Rainfall 0.00 in
Snow Depth Not available.
UV 0 out of 12
Pollen 7.80 out of 12
Air Quality Not available.
Flu Activity Not available.
METAR KTEB 020051Z 00000KT 10SM CLR 08/M11 A3018 RMK AO2 SLP220 T00781106

More Conditions Fewer Conditions

Pressure 30.18 in
Visibility 10.0 miles
Clouds Clear
Windchill 39 °F
Dew Point 25 °F
Humidity 57%
Rainfall 0.00 in
Snow Depth Not available.
UV 0 out of 12
Pollen 7.80 out of 12
Air Quality Not available.
Flu Activity Not available.
METAR KTEB 020051Z 00000KT 10SM CLR 08/M11 A3018 RMK AO2 SLP220 T00781106

More Conditions Fewer Conditions

10-Day Weather Forecast

Almanac

Astronomy

Apr. 01, 2015 Rise Set
Actual Time
Civil Twilight
Nautical Twilight
Astronomical Twilight
Moon
Length of Visible Light
Length of Day
Tomorrow will be .
, % of the Moon is Illuminated

Today's Extremes

State Highs State Lows

Community

WunderPhotos

Upload Photos

1,810,148 photos uploaded!

WunderBlogs® & News

Nearby

Air Quality

  Air Quality AQ Index Pollutant
Not available.

Snow Depth

Station Depth Elevation

Earthquake Activity

City Distance Mag. Time & Date
Minimum magnitude displayed is 2.5.

Coastal Water Temperatures

Place Temperature

Stations

Nearby Weather Stations

Station Location Temp. Windchill Dew Point Humidity Wind Precip. Elev Updated Type